No particular awareness of the weather is required.    There are no Weather-warnings


Meteo18 Weather Cam more information Meteo18 Weather Cam


Thunder radar more information blitzortung!


Rain radar more information rain snow radar


Visit our other weather sites:

Template documentation
and downloads

And another site



Weather Underground History page Text

Daily Summary for November 14, 2017 Units:  Both    English   Metric
« Previous Day
Next Day »
Daily Weekly Monthly Yearly Custom
  High: Low: Average:
Temperature: TemperatureC °F /  -17.8 °C 1.5 °F /  -16.9 °C 4.4 °F /  -15.3 °C
Dew Point: DewpointC °F /  -17.8 °C 0.8 °F /  -17.3 °C 2.9 °F /  -16.2 °C
Humidity: Humidity % 82 % 90 %
Wind Speed: WindSpeedKMH mph /  0 km/h - 3.6 mph /  5.8 km/h
Wind Gust: WindSpeedGustKMH mph /  0 km/h - -
Wind:- - South
Pressure: PressurehPa in /  0 hPa 1025.3 in /  34716.7 hPa -
Precipitation: 0.0 in /  0 mm    
Historical Graphs
 
 
Tabular Data for November 14, 2017
Time Temperature Dew Point Pressure Wind Wind Speed Wind Gust Humidity Rainfall Rate (Hourly)
TemperatureC °F /  -17.8 °C DewpointC °F /  -17.8 °C PressurehPa in /  0 hPa Calm     Humidity % HourlyPrecipMM in /  0 mm
00:02 4.3 °F /  -15.4 °C 2.8 °F /  -16.2 °C 1025.6 in /  34726.8 hPa North 6.4 mph /  10.3 km/h 20.9 mph /  33.6 km/h 90 % 0.0 in /  0 mm
00:12 4.3 °F /  -15.4 °C 2.6 °F /  -16.3 °C 1025.3 in /  34716.7 hPa NNW 8.0 mph /  12.9 km/h 20.9 mph /  33.6 km/h 89 % 0.0 in /  0 mm
00:17 4.3 °F /  -15.4 °C 2.8 °F /  -16.2 °C 1025.3 in /  34716.7 hPa NNE 9.7 mph /  15.6 km/h 20.9 mph /  33.6 km/h 90 % 0.0 in /  0 mm
00:22 4.4 °F /  -15.3 °C 2.9 °F /  -16.2 °C 1025.3 in /  34716.7 hPa North 8.0 mph /  12.9 km/h 20.9 mph /  33.6 km/h 90 % 0.0 in /  0 mm
00:27 4.4 °F /  -15.3 °C 2.9 °F /  -16.2 °C 1025.3 in /  34716.7 hPa NNW 14.5 mph /  23.3 km/h 22.5 mph /  36.2 km/h 90 % 0.0 in /  0 mm
00:32 4.4 °F /  -15.3 °C 2.7 °F /  -16.3 °C 1025.3 in /  34716.7 hPa West 6.4 mph /  10.3 km/h 22.5 mph /  36.2 km/h 89 % 0.0 in /  0 mm
00:42 4.3 °F /  -15.4 °C 2.8 °F /  -16.2 °C 1025.6 in /  34726.8 hPa NNW 9.7 mph /  15.6 km/h 20.9 mph /  33.6 km/h 90 % 0.0 in /  0 mm
00:52 4.2 °F /  -15.4 °C 2.7 °F /  -16.3 °C 1025.6 in /  34726.8 hPa NE 6.4 mph /  10.3 km/h 24.1 mph /  38.8 km/h 90 % 0.0 in /  0 mm
00:57 4.0 °F /  -15.6 °C 2.5 °F /  -16.4 °C 1025.6 in /  34726.8 hPa North 9.7 mph /  15.6 km/h 24.1 mph /  38.8 km/h 90 % 0.0 in /  0 mm
01:02 3.9 °F /  -15.6 °C 2.4 °F /  -16.4 °C 1025.6 in /  34726.8 hPa NNE 8.0 mph /  12.9 km/h 22.5 mph /  36.2 km/h 90 % 0.0 in /  0 mm
01:12 3.7 °F /  -15.7 °C 2.4 °F /  -16.4 °C 1025.6 in /  34726.8 hPa NE 4.8 mph /  7.7 km/h 16.1 mph /  25.9 km/h 91 % 0.0 in /  0 mm
01:17 3.7 °F /  -15.7 °C 2.4 °F /  -16.4 °C 1025.6 in /  34726.8 hPa NW 14.5 mph /  23.3 km/h 16.1 mph /  25.9 km/h 91 % 0.0 in /  0 mm
01:22 3.7 °F /  -15.7 °C 2.4 °F /  -16.4 °C 1025.6 in /  34726.8 hPa North 4.8 mph /  7.7 km/h 16.1 mph /  25.9 km/h 91 % 0.0 in /  0 mm
01:27 3.8 °F /  -15.7 °C 2.5 °F /  -16.4 °C 1025.6 in /  34726.8 hPa NW 6.4 mph /  10.3 km/h 16.1 mph /  25.9 km/h 91 % 0.0 in /  0 mm
01:32 3.8 °F /  -15.7 °C 2.5 °F /  -16.4 °C 1025.6 in /  34726.8 hPa North 3.2 mph /  5.1 km/h 16.1 mph /  25.9 km/h 91 % 0.0 in /  0 mm
01:37 3.8 °F /  -15.7 °C 2.5 °F /  -16.4 °C 1025.6 in /  34726.8 hPa NNW 6.4 mph /  10.3 km/h 14.5 mph /  23.3 km/h 91 % 0.0 in /  0 mm
01:47 3.8 °F /  -15.7 °C 2.5 °F /  -16.4 °C 1025.6 in /  34726.8 hPa NNW 4.8 mph /  7.7 km/h 14.5 mph /  23.3 km/h 91 % 0.0 in /  0 mm
01:52 3.7 °F /  -15.7 °C 2.4 °F /  -16.4 °C 1025.6 in /  34726.8 hPa NNE 12.9 mph /  20.8 km/h 14.5 mph /  23.3 km/h 91 % 0.0 in /  0 mm
01:57 3.7 °F /  -15.7 °C 2.5 °F /  -16.4 °C 1026.0 in /  34740.4 hPa NNE 11.3 mph /  18.2 km/h 14.5 mph /  23.3 km/h 92 % 0.0 in /  0 mm
02:02 3.7 °F /  -15.7 °C 2.4 °F /  -16.4 °C 1026.0 in /  34740.4 hPa NNE 4.8 mph /  7.7 km/h 14.5 mph /  23.3 km/h 91 % 0.0 in /  0 mm
02:12 3.6 °F /  -15.8 °C 2.3 °F /  -16.5 °C 1026.0 in /  34740.4 hPa Calm   14.5 mph /  23.3 km/h 91 % 0.0 in /  0 mm
02:17 3.5 °F /  -15.8 °C 2.2 °F /  -16.6 °C 1026.0 in /  34740.4 hPa ENE 1.6 mph /  2.6 km/h 8.0 mph /  12.9 km/h 91 % 0.0 in /  0 mm
02:22 3.3 °F /  -15.9 °C 2.0 °F /  -16.7 °C 1026.3 in /  34750.5 hPa East 3.2 mph /  5.1 km/h 6.4 mph /  10.3 km/h 91 % 0.0 in /  0 mm
02:27 3.2 °F /  -16 °C 2.0 °F /  -16.7 °C 1026.3 in /  34750.5 hPa Calm   3.2 mph /  5.1 km/h 92 % 0.0 in /  0 mm
02:32 3.3 °F /  -15.9 °C 2.1 °F /  -16.6 °C 1026.3 in /  34750.5 hPa Calm   3.2 mph /  5.1 km/h 92 % 0.0 in /  0 mm
02:42 3.3 °F /  -15.9 °C 2.3 °F /  -16.5 °C 1026.3 in /  34750.5 hPa Calm   3.2 mph /  5.1 km/h 93 % 0.0 in /  0 mm
02:47 3.3 °F /  -15.9 °C 2.3 °F /  -16.5 °C 1026.3 in /  34750.5 hPa Calm   3.2 mph /  5.1 km/h 93 % 0.0 in /  0 mm
02:52 3.4 °F /  -15.9 °C 2.4 °F /  -16.4 °C 1026.3 in /  34750.5 hPa Calm   4.8 mph /  7.7 km/h 93 % 0.0 in /  0 mm
02:57 3.4 °F /  -15.9 °C 2.4 °F /  -16.4 °C 1026.3 in /  34750.5 hPa NNE 1.6 mph /  2.6 km/h 6.4 mph /  10.3 km/h 93 % 0.0 in /  0 mm
03:02 3.6 °F /  -15.8 °C 2.6 °F /  -16.3 °C 1026.3 in /  34750.5 hPa NNE 4.8 mph /  7.7 km/h 6.4 mph /  10.3 km/h 93 % 0.0 in /  0 mm
03:12 3.7 °F /  -15.7 °C 2.7 °F /  -16.3 °C 1026.3 in /  34750.5 hPa NNE 8.0 mph /  12.9 km/h 9.7 mph /  15.6 km/h 93 % 0.0 in /  0 mm
03:17 3.7 °F /  -15.7 °C 2.7 °F /  -16.3 °C 1026.3 in /  34750.5 hPa NNE 1.6 mph /  2.6 km/h 14.5 mph /  23.3 km/h 93 % 0.0 in /  0 mm
03:22 3.7 °F /  -15.7 °C 2.7 °F /  -16.3 °C 1026.3 in /  34750.5 hPa NNE 8.0 mph /  12.9 km/h 14.5 mph /  23.3 km/h 93 % 0.0 in /  0 mm
03:32 3.7 °F /  -15.7 °C 2.7 °F /  -16.3 °C 1026.3 in /  34750.5 hPa NNW 3.2 mph /  5.1 km/h 17.7 mph /  28.5 km/h 93 % 0.0 in /  0 mm
03:42 3.3 °F /  -15.9 °C 2.3 °F /  -16.5 °C 1026.3 in /  34750.5 hPa NNE 4.8 mph /  7.7 km/h 17.7 mph /  28.5 km/h 93 % 0.0 in /  0 mm
03:47 3.3 °F /  -15.9 °C 2.3 °F /  -16.5 °C 1026.3 in /  34750.5 hPa NNE 4.8 mph /  7.7 km/h 11.3 mph /  18.2 km/h 93 % 0.0 in /  0 mm
03:52 3.3 °F /  -15.9 °C 2.3 °F /  -16.5 °C 1026.3 in /  34750.5 hPa NNE 4.8 mph /  7.7 km/h 11.3 mph /  18.2 km/h 93 % 0.0 in /  0 mm
09:07 3.6 °F /  -15.8 °C 2.9 °F /  -16.2 °C 1027.7 in /  34797.9 hPa NE 4.8 mph /  7.7 km/h -1607.4 mph /  -2586.8 km/h 95 % 0 in /  0 mm
09:12 3.6 °F /  -15.8 °C 2.9 °F /  -16.2 °C 1027.7 in /  34797.9 hPa NNE 4.8 mph /  7.7 km/h 8.0 mph /  12.9 km/h 95 % 0.0 in /  0 mm
09:17 3.6 °F /  -15.8 °C 2.9 °F /  -16.2 °C 1027.7 in /  34797.9 hPa NNE 1.6 mph /  2.6 km/h 8.0 mph /  12.9 km/h 95 % 0.0 in /  0 mm
09:22 3.6 °F /  -15.8 °C 2.7 °F /  -16.3 °C 1028.0 in /  34808.1 hPa NE 1.6 mph /  2.6 km/h 8.0 mph /  12.9 km/h 94 % 0.0 in /  0 mm
09:27 3.7 °F /  -15.7 °C 3.0 °F /  -16.1 °C 1028.0 in /  34808.1 hPa Calm   8.0 mph /  12.9 km/h 95 % 0.0 in /  0 mm
09:32 3.7 °F /  -15.7 °C 2.8 °F /  -16.2 °C 1028.0 in /  34808.1 hPa NNE 1.6 mph /  2.6 km/h 8.0 mph /  12.9 km/h 94 % 0.0 in /  0 mm
09:37 3.7 °F /  -15.7 °C 2.8 °F /  -16.2 °C 1028.0 in /  34808.1 hPa NNE 1.6 mph /  2.6 km/h 4.8 mph /  7.7 km/h 94 % 0.0 in /  0 mm
09:42 3.7 °F /  -15.7 °C 2.8 °F /  -16.2 °C 1028.0 in /  34808.1 hPa North 3.2 mph /  5.1 km/h 4.8 mph /  7.7 km/h 94 % 0.0 in /  0 mm
09:47 3.8 °F /  -15.7 °C 2.9 °F /  -16.2 °C 1028.0 in /  34808.1 hPa Calm   4.8 mph /  7.7 km/h 94 % 0.0 in /  0 mm
09:52 3.8 °F /  -15.7 °C 2.9 °F /  -16.2 °C 1028.0 in /  34808.1 hPa NNE 3.2 mph /  5.1 km/h 4.8 mph /  7.7 km/h 94 % 0.0 in /  0 mm
09:57 3.8 °F /  -15.7 °C 2.9 °F /  -16.2 °C 1028.0 in /  34808.1 hPa NNE 1.6 mph /  2.6 km/h 4.8 mph /  7.7 km/h 94 % 0.0 in /  0 mm
10:02 3.8 °F /  -15.7 °C 2.9 °F /  -16.2 °C 1028.0 in /  34808.1 hPa NE 3.2 mph /  5.1 km/h 4.8 mph /  7.7 km/h 94 % 0.0 in /  0 mm
10:07 3.9 °F /  -15.6 °C 3.0 °F /  -16.1 °C 1028.3 in /  34818.2 hPa NE 4.8 mph /  7.7 km/h 4.8 mph /  7.7 km/h 94 % 0.0 in /  0 mm
10:12 3.9 °F /  -15.6 °C 3.0 °F /  -16.1 °C 1028.3 in /  34818.2 hPa Calm   4.8 mph /  7.7 km/h 94 % 0.0 in /  0 mm
10:17 3.9 °F /  -15.6 °C 3.0 °F /  -16.1 °C 1028.3 in /  34818.2 hPa Calm   6.4 mph /  10.3 km/h 94 % 0.0 in /  0 mm
10:22 4.1 °F /  -15.5 °C 3.2 °F /  -16 °C 1028.0 in /  34808.1 hPa ENE 1.6 mph /  2.6 km/h 6.4 mph /  10.3 km/h 94 % 0.0 in /  0 mm
10:32 4.1 °F /  -15.5 °C 3.2 °F /  -16 °C 1028.0 in /  34808.1 hPa North 1.6 mph /  2.6 km/h 4.8 mph /  7.7 km/h 94 % 0.0 in /  0 mm
10:37 4.1 °F /  -15.5 °C 3.1 °F /  -16.1 °C 1028.0 in /  34808.1 hPa NE 3.2 mph /  5.1 km/h 6.4 mph /  10.3 km/h 93 % 0.0 in /  0 mm
10:42 4.2 °F /  -15.4 °C 3.2 °F /  -16 °C 1028.0 in /  34808.1 hPa NNE 1.6 mph /  2.6 km/h 6.4 mph /  10.3 km/h 93 % 0.0 in /  0 mm
10:47 4.2 °F /  -15.4 °C 3.2 °F /  -16 °C 1028.0 in /  34808.1 hPa Calm   6.4 mph /  10.3 km/h 93 % 0.0 in /  0 mm
10:52 4.3 °F /  -15.4 °C 3.3 °F /  -15.9 °C 1028.0 in /  34808.1 hPa NNW 4.8 mph /  7.7 km/h 6.4 mph /  10.3 km/h 93 % 0.0 in /  0 mm
10:57 4.3 °F /  -15.4 °C 3.3 °F /  -15.9 °C 1028.3 in /  34818.2 hPa NE 3.2 mph /  5.1 km/h 6.4 mph /  10.3 km/h 93 % 0.0 in /  0 mm
11:02 4.3 °F /  -15.4 °C 3.3 °F /  -15.9 °C 1028.3 in /  34818.2 hPa NW 1.6 mph /  2.6 km/h 6.4 mph /  10.3 km/h 93 % 0.0 in /  0 mm
11:07 4.4 °F /  -15.3 °C 3.4 °F /  -15.9 °C 1028.3 in /  34818.2 hPa NNW 1.6 mph /  2.6 km/h 6.4 mph /  10.3 km/h 93 % 0.0 in /  0 mm
11:12 4.4 °F /  -15.3 °C 3.2 °F /  -16 °C 1028.3 in /  34818.2 hPa Calm   6.4 mph /  10.3 km/h 92 % 0.0 in /  0 mm
11:17 4.4 °F /  -15.3 °C 3.2 °F /  -16 °C 1028.3 in /  34818.2 hPa North 1.6 mph /  2.6 km/h 8.0 mph /  12.9 km/h 92 % 0.0 in /  0 mm
11:32 4.9 °F /  -15.1 °C 3.7 °F /  -15.7 °C 1028.3 in /  34818.2 hPa Calm   8.0 mph /  12.9 km/h 92 % 0.0 in /  0 mm
11:42 5.2 °F /  -14.9 °C 3.9 °F /  -15.6 °C 1028.0 in /  34808.1 hPa North 3.2 mph /  5.1 km/h 6.4 mph /  10.3 km/h 91 % 0.0 in /  0 mm
11:47 5.2 °F /  -14.9 °C 3.7 °F /  -15.7 °C 1028.0 in /  34808.1 hPa NNE 1.6 mph /  2.6 km/h 9.7 mph /  15.6 km/h 90 % 0.0 in /  0 mm
11:57 5.4 °F /  -14.8 °C 3.7 °F /  -15.7 °C 1028.0 in /  34808.1 hPa NNW 8.0 mph /  12.9 km/h 9.7 mph /  15.6 km/h 89 % 0.0 in /  0 mm
12:02 5.6 °F /  -14.7 °C 4.1 °F /  -15.5 °C 1027.7 in /  34797.9 hPa North 3.2 mph /  5.1 km/h 9.7 mph /  15.6 km/h 90 % 0.0 in /  0 mm
12:07 5.7 °F /  -14.6 °C 4.0 °F /  -15.6 °C 1027.7 in /  34797.9 hPa NW 3.2 mph /  5.1 km/h 9.7 mph /  15.6 km/h 89 % 0.0 in /  0 mm
12:12 5.7 °F /  -14.6 °C 3.9 °F /  -15.6 °C 1027.7 in /  34797.9 hPa NNW 1.6 mph /  2.6 km/h 9.7 mph /  15.6 km/h 88 % 0.0 in /  0 mm
12:17 5.8 °F /  -14.6 °C 4.0 °F /  -15.6 °C 1027.7 in /  34797.9 hPa NW 4.8 mph /  7.7 km/h 11.3 mph /  18.2 km/h 88 % 0.0 in /  0 mm
12:22 5.9 °F /  -14.5 °C 4.1 °F /  -15.5 °C 1028.0 in /  34808.1 hPa NE 6.4 mph /  10.3 km/h 12.9 mph /  20.8 km/h 88 % 0.0 in /  0 mm
12:32 6.2 °F /  -14.3 °C 4.0 °F /  -15.6 °C 1027.7 in /  34797.9 hPa NNW 8.0 mph /  12.9 km/h 12.9 mph /  20.8 km/h 86 % 0.0 in /  0 mm
12:42 6.4 °F /  -14.2 °C 4.4 °F /  -15.3 °C 1027.7 in /  34797.9 hPa North 6.4 mph /  10.3 km/h 12.9 mph /  20.8 km/h 87 % 0.0 in /  0 mm
12:47 6.5 °F /  -14.2 °C 4.3 °F /  -15.4 °C 1027.7 in /  34797.9 hPa NNE 4.8 mph /  7.7 km/h 11.3 mph /  18.2 km/h 86 % 0.0 in /  0 mm
12:52 6.4 °F /  -14.2 °C 4.2 °F /  -15.4 °C 1027.7 in /  34797.9 hPa NNW 3.2 mph /  5.1 km/h 11.3 mph /  18.2 km/h 86 % 0.0 in /  0 mm
12:57 6.7 °F /  -14.1 °C 4.7 °F /  -15.2 °C 1027.7 in /  34797.9 hPa NNW 6.4 mph /  10.3 km/h 11.3 mph /  18.2 km/h 87 % 0.0 in /  0 mm
13:02 6.8 °F /  -14 °C 4.6 °F /  -15.2 °C 1027.7 in /  34797.9 hPa WNW 8.0 mph /  12.9 km/h 11.3 mph /  18.2 km/h 86 % 0.0 in /  0 mm
13:12 6.8 °F /  -14 °C 4.5 °F /  -15.3 °C 1027.7 in /  34797.9 hPa NNE 8.0 mph /  12.9 km/h 11.3 mph /  18.2 km/h 85 % 0.0 in /  0 mm
13:17 6.8 °F /  -14 °C 4.5 °F /  -15.3 °C 1027.7 in /  34797.9 hPa NW 8.0 mph /  12.9 km/h 12.9 mph /  20.8 km/h 85 % 0.0 in /  0 mm
13:22 6.8 °F /  -14 °C 4.5 °F /  -15.3 °C 1027.7 in /  34797.9 hPa North 6.4 mph /  10.3 km/h 12.9 mph /  20.8 km/h 85 % 0.0 in /  0 mm
13:27 6.9 °F /  -13.9 °C 4.6 °F /  -15.2 °C 1027.7 in /  34797.9 hPa NNW 3.2 mph /  5.1 km/h 12.9 mph /  20.8 km/h 85 % 0.0 in /  0 mm
13:32 7.0 °F /  -13.9 °C 4.5 °F /  -15.3 °C 1027.7 in /  34797.9 hPa North 3.2 mph /  5.1 km/h 14.5 mph /  23.3 km/h 84 % 0.0 in /  0 mm
13:37 6.9 °F /  -13.9 °C 4.4 °F /  -15.3 °C 1027.7 in /  34797.9 hPa NW 9.7 mph /  15.6 km/h 14.5 mph /  23.3 km/h 84 % 0.0 in /  0 mm
13:42 6.9 °F /  -13.9 °C 4.6 °F /  -15.2 °C 1027.7 in /  34797.9 hPa NW 9.7 mph /  15.6 km/h 16.1 mph /  25.9 km/h 85 % 0.0 in /  0 mm
13:47 6.9 °F /  -13.9 °C 4.2 °F /  -15.4 °C 1027.7 in /  34797.9 hPa NNW 4.8 mph /  7.7 km/h 16.1 mph /  25.9 km/h 83 % 0.0 in /  0 mm
13:52 7.0 °F /  -13.9 °C 4.5 °F /  -15.3 °C 1027.7 in /  34797.9 hPa NNE 4.8 mph /  7.7 km/h 16.1 mph /  25.9 km/h 84 % 0.0 in /  0 mm
13:57 6.9 °F /  -13.9 °C 4.4 °F /  -15.3 °C 1027.7 in /  34797.9 hPa NNW 6.4 mph /  10.3 km/h 12.9 mph /  20.8 km/h 84 % 0.0 in /  0 mm
14:02 6.9 °F /  -13.9 °C 4.4 °F /  -15.3 °C 1027.3 in /  34784.4 hPa West 4.8 mph /  7.7 km/h 12.9 mph /  20.8 km/h 84 % 0.0 in /  0 mm
14:07 7.1 °F /  -13.8 °C 4.6 °F /  -15.2 °C 1027.3 in /  34784.4 hPa WNW 1.6 mph /  2.6 km/h 12.9 mph /  20.8 km/h 84 % 0.0 in /  0 mm
14:12 7.2 °F /  -13.8 °C 4.7 °F /  -15.2 °C 1027.3 in /  34784.4 hPa NNW 9.7 mph /  15.6 km/h 12.9 mph /  20.8 km/h 84 % 0.0 in /  0 mm
14:17 6.9 °F /  -13.9 °C 4.2 °F /  -15.4 °C 1027.3 in /  34784.4 hPa NNE 6.4 mph /  10.3 km/h 12.9 mph /  20.8 km/h 83 % 0.0 in /  0 mm
14:22 6.8 °F /  -14 °C 4.3 °F /  -15.4 °C 1027.3 in /  34784.4 hPa NW 3.2 mph /  5.1 km/h 17.7 mph /  28.5 km/h 84 % 0.0 in /  0 mm
14:32 6.9 °F /  -13.9 °C 4.4 °F /  -15.3 °C 1027.0 in /  34774.2 hPa North 4.8 mph /  7.7 km/h 17.7 mph /  28.5 km/h 84 % 0.0 in /  0 mm
14:37 7.1 °F /  -13.8 °C 4.6 °F /  -15.2 °C 1027.0 in /  34774.2 hPa North 8.0 mph /  12.9 km/h 17.7 mph /  28.5 km/h 84 % 0.0 in /  0 mm
14:42 7.1 °F /  -13.8 °C 4.4 °F /  -15.3 °C 1027.3 in /  34784.4 hPa NNE 6.4 mph /  10.3 km/h 17.7 mph /  28.5 km/h 83 % 0.0 in /  0 mm
14:47 7.1 °F /  -13.8 °C 4.2 °F /  -15.4 °C 1027.3 in /  34784.4 hPa NE 6.4 mph /  10.3 km/h 12.9 mph /  20.8 km/h 82 % 0.0 in /  0 mm
14:52 7.2 °F /  -13.8 °C 4.3 °F /  -15.4 °C 1027.3 in /  34784.4 hPa NNE 8.0 mph /  12.9 km/h 12.9 mph /  20.8 km/h 82 % 0.0 in /  0 mm
14:57 7.1 °F /  -13.8 °C 4.2 °F /  -15.4 °C 1027.3 in /  34784.4 hPa NNW 9.7 mph /  15.6 km/h 11.3 mph /  18.2 km/h 82 % 0.0 in /  0 mm
15:02 7.2 °F /  -13.8 °C 4.5 °F /  -15.3 °C 1027.3 in /  34784.4 hPa NNE 11.3 mph /  18.2 km/h 14.5 mph /  23.3 km/h 83 % 0.0 in /  0 mm
15:12 7.1 °F /  -13.8 °C 4.4 °F /  -15.3 °C 1027.7 in /  34797.9 hPa NNW 6.4 mph /  10.3 km/h 14.5 mph /  23.3 km/h 83 % 0.0 in /  0 mm
15:17 7.0 °F /  -13.9 °C 4.3 °F /  -15.4 °C 1027.7 in /  34797.9 hPa NNW 8.0 mph /  12.9 km/h 12.9 mph /  20.8 km/h 83 % 0.0 in /  0 mm
15:22 6.9 °F /  -13.9 °C 4.2 °F /  -15.4 °C 1027.7 in /  34797.9 hPa NNE 11.3 mph /  18.2 km/h 12.9 mph /  20.8 km/h 83 % 0.0 in /  0 mm
15:27 6.9 °F /  -13.9 °C 4.4 °F /  -15.3 °C 1027.7 in /  34797.9 hPa North 6.4 mph /  10.3 km/h 12.9 mph /  20.8 km/h 84 % 0.0 in /  0 mm
15:32 7.1 °F /  -13.8 °C 4.4 °F /  -15.3 °C 1027.7 in /  34797.9 hPa NE 8.0 mph /  12.9 km/h 12.9 mph /  20.8 km/h 83 % 0.0 in /  0 mm
15:37 7.1 °F /  -13.8 °C 4.6 °F /  -15.2 °C 1027.7 in /  34797.9 hPa NNE 3.2 mph /  5.1 km/h 11.3 mph /  18.2 km/h 84 % 0.0 in /  0 mm
15:42 7.1 °F /  -13.8 °C 4.6 °F /  -15.2 °C 1027.3 in /  34784.4 hPa NNE 6.4 mph /  10.3 km/h 11.3 mph /  18.2 km/h 84 % 0.0 in /  0 mm
15:47 6.9 °F /  -13.9 °C 4.2 °F /  -15.4 °C 1027.3 in /  34784.4 hPa NW 1.6 mph /  2.6 km/h 11.3 mph /  18.2 km/h 83 % 0.0 in /  0 mm
15:52 7.0 °F /  -13.9 °C 4.5 °F /  -15.3 °C 1027.3 in /  34784.4 hPa NNW 4.8 mph /  7.7 km/h 12.9 mph /  20.8 km/h 84 % 0.0 in /  0 mm
15:57 6.9 °F /  -13.9 °C 4.4 °F /  -15.3 °C 1027.3 in /  34784.4 hPa NW 3.2 mph /  5.1 km/h 12.9 mph /  20.8 km/h 84 % 0.0 in /  0 mm
16:02 6.9 °F /  -13.9 °C 4.4 °F /  -15.3 °C 1027.3 in /  34784.4 hPa North 4.8 mph /  7.7 km/h 12.9 mph /  20.8 km/h 84 % 0.0 in /  0 mm
16:07 6.9 °F /  -13.9 °C 4.4 °F /  -15.3 °C 1027.3 in /  34784.4 hPa NNW 1.6 mph /  2.6 km/h 12.9 mph /  20.8 km/h 84 % 0.0 in /  0 mm
16:12 6.8 °F /  -14 °C 4.3 °F /  -15.4 °C 1027.3 in /  34784.4 hPa NNW 3.2 mph /  5.1 km/h 11.3 mph /  18.2 km/h 84 % 0.0 in /  0 mm
16:17 6.8 °F /  -14 °C 4.3 °F /  -15.4 °C 1027.3 in /  34784.4 hPa NNW 3.2 mph /  5.1 km/h 11.3 mph /  18.2 km/h 84 % 0.0 in /  0 mm
16:22 6.8 °F /  -14 °C 4.3 °F /  -15.4 °C 1027.3 in /  34784.4 hPa NNE 3.2 mph /  5.1 km/h 11.3 mph /  18.2 km/h 84 % 0.0 in /  0 mm
16:27 6.7 °F /  -14.1 °C 4.2 °F /  -15.4 °C 1027.3 in /  34784.4 hPa NNE 3.2 mph /  5.1 km/h 9.7 mph /  15.6 km/h 84 % 0.0 in /  0 mm
16:37 6.7 °F /  -14.1 °C 4.2 °F /  -15.4 °C 1027.3 in /  34784.4 hPa NNE 6.4 mph /  10.3 km/h 8.0 mph /  12.9 km/h 84 % 0.0 in /  0 mm
16:42 6.5 °F /  -14.2 °C 4.0 °F /  -15.6 °C 1027.3 in /  34784.4 hPa NNE 3.2 mph /  5.1 km/h 6.4 mph /  10.3 km/h 84 % 0.0 in /  0 mm
16:47 6.3 °F /  -14.3 °C 4.0 °F /  -15.6 °C 1027.3 in /  34784.4 hPa North 3.2 mph /  5.1 km/h 6.4 mph /  10.3 km/h 85 % 0.0 in /  0 mm
16:52 6.2 °F /  -14.3 °C 4.0 °F /  -15.6 °C 1027.3 in /  34784.4 hPa Calm   6.4 mph /  10.3 km/h 86 % 0.0 in /  0 mm
16:57 6.1 °F /  -14.4 °C 3.9 °F /  -15.6 °C 1027.7 in /  34797.9 hPa North 3.2 mph /  5.1 km/h 4.8 mph /  7.7 km/h 86 % 0.0 in /  0 mm
17:02 5.9 °F /  -14.5 °C 3.7 °F /  -15.7 °C 1027.7 in /  34797.9 hPa North 1.6 mph /  2.6 km/h 4.8 mph /  7.7 km/h 86 % 0.0 in /  0 mm
17:07 5.7 °F /  -14.6 °C 3.5 °F /  -15.8 °C 1027.7 in /  34797.9 hPa NNE 1.6 mph /  2.6 km/h 4.8 mph /  7.7 km/h 86 % 0.0 in /  0 mm
17:12 5.5 °F /  -14.7 °C 3.5 °F /  -15.8 °C 1027.7 in /  34797.9 hPa Calm   6.4 mph /  10.3 km/h 87 % 0.0 in /  0 mm
17:17 5.3 °F /  -14.8 °C 3.3 °F /  -15.9 °C 1027.7 in /  34797.9 hPa NNW 1.6 mph /  2.6 km/h 6.4 mph /  10.3 km/h 87 % 0.0 in /  0 mm
17:22 5.2 °F /  -14.9 °C 3.4 °F /  -15.9 °C 1027.7 in /  34797.9 hPa NNE 3.2 mph /  5.1 km/h 6.4 mph /  10.3 km/h 88 % 0.0 in /  0 mm
17:32 4.8 °F /  -15.1 °C 3.0 °F /  -16.1 °C 1027.7 in /  34797.9 hPa Calm   3.2 mph /  5.1 km/h 88 % 0.0 in /  0 mm
17:37 4.7 °F /  -15.2 °C 3.0 °F /  -16.1 °C 1027.7 in /  34797.9 hPa North 1.6 mph /  2.6 km/h 4.8 mph /  7.7 km/h 89 % 0.0 in /  0 mm
17:42 4.6 °F /  -15.2 °C 3.1 °F /  -16.1 °C 1027.7 in /  34797.9 hPa North 1.6 mph /  2.6 km/h 4.8 mph /  7.7 km/h 90 % 0.0 in /  0 mm
17:47 4.5 °F /  -15.3 °C 3.0 °F /  -16.1 °C 1027.7 in /  34797.9 hPa North 3.2 mph /  5.1 km/h 4.8 mph /  7.7 km/h 90 % 0.0 in /  0 mm
17:52 4.5 °F /  -15.3 °C 3.0 °F /  -16.1 °C 1027.7 in /  34797.9 hPa NNW 3.2 mph /  5.1 km/h 4.8 mph /  7.7 km/h 90 % 0.0 in /  0 mm
17:57 4.5 °F /  -15.3 °C 3.0 °F /  -16.1 °C 1027.7 in /  34797.9 hPa NNW 3.2 mph /  5.1 km/h 4.8 mph /  7.7 km/h 90 % 0.0 in /  0 mm
18:02 4.6 °F /  -15.2 °C 3.1 °F /  -16.1 °C 1027.7 in /  34797.9 hPa NNW 4.8 mph /  7.7 km/h 8.0 mph /  12.9 km/h 90 % 0.0 in /  0 mm
18:12 4.4 °F /  -15.3 °C 2.9 °F /  -16.2 °C 1027.7 in /  34797.9 hPa NW 3.2 mph /  5.1 km/h 8.0 mph /  12.9 km/h 90 % 0.0 in /  0 mm
18:17 4.4 °F /  -15.3 °C 3.1 °F /  -16.1 °C 1027.7 in /  34797.9 hPa NNW 3.2 mph /  5.1 km/h 8.0 mph /  12.9 km/h 91 % 0.0 in /  0 mm
18:22 4.3 °F /  -15.4 °C 3.0 °F /  -16.1 °C 1027.7 in /  34797.9 hPa North 1.6 mph /  2.6 km/h 8.0 mph /  12.9 km/h 91 % 0.0 in /  0 mm
18:27 4.3 °F /  -15.4 °C 3.0 °F /  -16.1 °C 1027.7 in /  34797.9 hPa NNW 1.6 mph /  2.6 km/h 8.0 mph /  12.9 km/h 91 % 0.0 in /  0 mm
18:32 4.3 °F /  -15.4 °C 3.0 °F /  -16.1 °C 1027.7 in /  34797.9 hPa NNW 3.2 mph /  5.1 km/h 8.0 mph /  12.9 km/h 91 % 0.0 in /  0 mm
18:37 4.2 °F /  -15.4 °C 2.9 °F /  -16.2 °C 1027.7 in /  34797.9 hPa NNW 4.8 mph /  7.7 km/h 9.7 mph /  15.6 km/h 91 % 0.0 in /  0 mm
18:47 4.2 °F /  -15.4 °C 2.9 °F /  -16.2 °C 1027.7 in /  34797.9 hPa NW 4.8 mph /  7.7 km/h 11.3 mph /  18.2 km/h 91 % 0.0 in /  0 mm
18:52 4.1 °F /  -15.5 °C 2.8 °F /  -16.2 °C 1027.7 in /  34797.9 hPa North 6.4 mph /  10.3 km/h 11.3 mph /  18.2 km/h 91 % 0.0 in /  0 mm
18:57 4.1 °F /  -15.5 °C 2.8 °F /  -16.2 °C 1028.0 in /  34808.1 hPa NW 3.2 mph /  5.1 km/h 9.7 mph /  15.6 km/h 91 % 0.0 in /  0 mm
19:02 4.1 °F /  -15.5 °C 2.9 °F /  -16.2 °C 1028.0 in /  34808.1 hPa North 4.8 mph /  7.7 km/h 11.3 mph /  18.2 km/h 92 % 0.0 in /  0 mm
19:12 3.9 °F /  -15.6 °C 2.6 °F /  -16.3 °C 1028.0 in /  34808.1 hPa NW 3.2 mph /  5.1 km/h 11.3 mph /  18.2 km/h 91 % 0.0 in /  0 mm
19:17 3.9 °F /  -15.6 °C 2.6 °F /  -16.3 °C 1028.0 in /  34808.1 hPa North 4.8 mph /  7.7 km/h 9.7 mph /  15.6 km/h 91 % 0.0 in /  0 mm
19:22 3.9 °F /  -15.6 °C 2.6 °F /  -16.3 °C 1028.0 in /  34808.1 hPa NNW 4.8 mph /  7.7 km/h 8.0 mph /  12.9 km/h 91 % 0.0 in /  0 mm
19:27 3.8 °F /  -15.7 °C 2.5 °F /  -16.4 °C 1028.0 in /  34808.1 hPa North 6.4 mph /  10.3 km/h 8.0 mph /  12.9 km/h 91 % 0.0 in /  0 mm
19:32 3.7 °F /  -15.7 °C 2.5 °F /  -16.4 °C 1028.0 in /  34808.1 hPa NW 3.2 mph /  5.1 km/h 6.4 mph /  10.3 km/h 92 % 0.0 in /  0 mm
19:42 3.4 °F /  -15.9 °C 2.2 °F /  -16.6 °C 1028.0 in /  34808.1 hPa NNE 1.6 mph /  2.6 km/h 6.4 mph /  10.3 km/h 92 % 0.0 in /  0 mm
19:52 3.2 °F /  -16 °C 2.0 °F /  -16.7 °C 1028.0 in /  34808.1 hPa Calm   6.4 mph /  10.3 km/h 92 % 0.0 in /  0 mm
20:02 3.0 °F /  -16.1 °C 1.8 °F /  -16.8 °C 1028.0 in /  34808.1 hPa Calm   4.8 mph /  7.7 km/h 92 % 0.0 in /  0 mm
20:07 2.9 °F /  -16.2 °C 1.9 °F /  -16.7 °C 1028.0 in /  34808.1 hPa Calm   3.2 mph /  5.1 km/h 93 % 0.0 in /  0 mm
20:12 2.8 °F /  -16.2 °C 1.8 °F /  -16.8 °C 1028.0 in /  34808.1 hPa Calm   1.6 mph /  2.6 km/h 93 % 0.0 in /  0 mm
20:22 2.8 °F /  -16.2 °C 1.8 °F /  -16.8 °C 1028.0 in /  34808.1 hPa Calm   1.6 mph /  2.6 km/h 93 % 0.0 in /  0 mm
20:27 2.7 °F /  -16.3 °C 1.7 °F /  -16.8 °C 1028.3 in /  34818.2 hPa Calm   1.6 mph /  2.6 km/h 93 % 0.0 in /  0 mm
20:32 2.5 °F /  -16.4 °C 1.5 °F /  -16.9 °C 1028.3 in /  34818.2 hPa Calm   1.6 mph /  2.6 km/h 93 % 0.0 in /  0 mm
20:42 2.4 °F /  -16.4 °C 1.5 °F /  -16.9 °C 1028.3 in /  34818.2 hPa NW 1.6 mph /  2.6 km/h   94 % 0.0 in /  0 mm
20:47 2.5 °F /  -16.4 °C 1.8 °F /  -16.8 °C 1028.3 in /  34818.2 hPa NW 1.6 mph /  2.6 km/h 1.6 mph /  2.6 km/h 95 % 0.0 in /  0 mm
20:52 2.6 °F /  -16.3 °C 1.7 °F /  -16.8 °C 1028.3 in /  34818.2 hPa NW 1.6 mph /  2.6 km/h 1.6 mph /  2.6 km/h 94 % 0.0 in /  0 mm
20:57 2.6 °F /  -16.3 °C 1.7 °F /  -16.8 °C 1028.3 in /  34818.2 hPa Calm   1.6 mph /  2.6 km/h 94 % 0.0 in /  0 mm
21:02 2.4 °F /  -16.4 °C 1.5 °F /  -16.9 °C 1028.3 in /  34818.2 hPa Calm   1.6 mph /  2.6 km/h 94 % 0.0 in /  0 mm
21:12 2.0 °F /  -16.7 °C 1.1 °F /  -17.2 °C 1028.3 in /  34818.2 hPa Calm   1.6 mph /  2.6 km/h 94 % 0.0 in /  0 mm
21:17 2.2 °F /  -16.6 °C 1.5 °F /  -16.9 °C 1028.3 in /  34818.2 hPa Calm     95 % 0.0 in /  0 mm
21:27 2.2 °F /  -16.6 °C 1.5 °F /  -16.9 °C 1028.3 in /  34818.2 hPa Calm   1.6 mph /  2.6 km/h 95 % 0.0 in /  0 mm
21:32 2.1 °F /  -16.6 °C 1.2 °F /  -17.1 °C 1028.3 in /  34818.2 hPa Calm   1.6 mph /  2.6 km/h 94 % 0.0 in /  0 mm
21:37 1.9 °F /  -16.7 °C 1.0 °F /  -17.2 °C 1028.3 in /  34818.2 hPa NW 1.6 mph /  2.6 km/h 1.6 mph /  2.6 km/h 94 % 0.0 in /  0 mm
21:42 1.8 °F /  -16.8 °C 1.1 °F /  -17.2 °C 1028.0 in /  34808.1 hPa Calm   1.6 mph /  2.6 km/h 95 % 0.0 in /  0 mm
21:47 1.8 °F /  -16.8 °C 1.1 °F /  -17.2 °C 1028.0 in /  34808.1 hPa Calm   1.6 mph /  2.6 km/h 95 % 0.0 in /  0 mm
21:52 1.8 °F /  -16.8 °C 1.1 °F /  -17.2 °C 1028.3 in /  34818.2 hPa NW 1.6 mph /  2.6 km/h 1.6 mph /  2.6 km/h 95 % 0.0 in /  0 mm
22:02 1.7 °F /  -16.8 °C 1.0 °F /  -17.2 °C 1028.0 in /  34808.1 hPa NW 1.6 mph /  2.6 km/h 1.6 mph /  2.6 km/h 95 % 0.0 in /  0 mm
22:07 1.6 °F /  -16.9 °C 0.9 °F /  -17.3 °C 1028.0 in /  34808.1 hPa Calm   3.2 mph /  5.1 km/h 95 % 0.0 in /  0 mm
22:12 1.6 °F /  -16.9 °C 0.9 °F /  -17.3 °C 1028.0 in /  34808.1 hPa Calm   3.2 mph /  5.1 km/h 95 % 0.0 in /  0 mm
22:17 1.6 °F /  -16.9 °C 0.9 °F /  -17.3 °C 1028.0 in /  34808.1 hPa Calm   3.2 mph /  5.1 km/h 95 % 0.0 in /  0 mm
22:22 1.5 °F /  -16.9 °C 0.8 °F /  -17.3 °C 1028.0 in /  34808.1 hPa Calm   1.6 mph /  2.6 km/h 95 % 0.0 in /  0 mm
22:27 1.6 °F /  -16.9 °C 1.0 °F /  -17.2 °C 1028.3 in /  34818.2 hPa NNW 1.6 mph /  2.6 km/h 1.6 mph /  2.6 km/h 96 % 0.0 in /  0 mm
22:32 1.6 °F /  -16.9 °C 1.0 °F /  -17.2 °C 1028.3 in /  34818.2 hPa NNE 1.6 mph /  2.6 km/h 1.6 mph /  2.6 km/h 96 % 0.0 in /  0 mm
22:37 1.8 °F /  -16.8 °C 1.2 °F /  -17.1 °C 1028.0 in /  34808.1 hPa NE 1.6 mph /  2.6 km/h 1.6 mph /  2.6 km/h 96 % 0.0 in /  0 mm
22:42 1.9 °F /  -16.7 °C 1.3 °F /  -17.1 °C 1028.3 in /  34818.2 hPa NE 1.6 mph /  2.6 km/h 1.6 mph /  2.6 km/h 96 % 0.0 in /  0 mm
22:47 2.1 °F /  -16.6 °C 1.5 °F /  -16.9 °C 1028.0 in /  34808.1 hPa NE 1.6 mph /  2.6 km/h 3.2 mph /  5.1 km/h 96 % 0.0 in /  0 mm
22:57 2.2 °F /  -16.6 °C 1.6 °F /  -16.9 °C 1028.3 in /  34818.2 hPa Calm   4.8 mph /  7.7 km/h 96 % 0.0 in /  0 mm
23:02 2.2 °F /  -16.6 °C 1.6 °F /  -16.9 °C 1028.0 in /  34808.1 hPa Calm   4.8 mph /  7.7 km/h 96 % 0.0 in /  0 mm
23:12 2.1 °F /  -16.6 °C 1.5 °F /  -16.9 °C 1028.0 in /  34808.1 hPa NNE 1.6 mph /  2.6 km/h 1.6 mph /  2.6 km/h 96 % 0.0 in /  0 mm
23:17 2.1 °F /  -16.6 °C 1.5 °F /  -16.9 °C 1028.0 in /  34808.1 hPa NNE 3.2 mph /  5.1 km/h 3.2 mph /  5.1 km/h 96 % 0.0 in /  0 mm
23:22 2.1 °F /  -16.6 °C 1.5 °F /  -16.9 °C 1028.0 in /  34808.1 hPa NNW 1.6 mph /  2.6 km/h 3.2 mph /  5.1 km/h 96 % 0.0 in /  0 mm
23:27 2.0 °F /  -16.7 °C 1.4 °F /  -17 °C 1028.0 in /  34808.1 hPa Calm   4.8 mph /  7.7 km/h 96 % 0.0 in /  0 mm
23:32 1.9 °F /  -16.7 °C 1.3 °F /  -17.1 °C 1028.0 in /  34808.1 hPa Calm   4.8 mph /  7.7 km/h 96 % 0.0 in /  0 mm
23:37 1.8 °F /  -16.8 °C 1.2 °F /  -17.1 °C 1028.0 in /  34808.1 hPa NE 1.6 mph /  2.6 km/h 4.8 mph /  7.7 km/h 96 % 0.0 in /  0 mm
23:42 1.8 °F /  -16.8 °C 1.2 °F /  -17.1 °C 1028.0 in /  34808.1 hPa NNE 3.2 mph /  5.1 km/h 3.2 mph /  5.1 km/h 96 % 0.0 in /  0 mm
23:47 1.7 °F /  -16.8 °C 1.1 °F /  -17.2 °C 1028.0 in /  34808.1 hPa Calm   4.8 mph /  7.7 km/h 96 % 0.0 in /  0 mm
23:52 1.7 °F /  -16.8 °C 1.1 °F /  -17.2 °C 1028.0 in /  34808.1 hPa NNE 3.2 mph /  5.1 km/h 4.8 mph /  7.7 km/h 96 % 0.0 in /  0 mm
23:57 1.6 °F /  -16.9 °C 1.0 °F /  -17.2 °C 1028.0 in /  34808.1 hPa NNW 1.6 mph /  2.6 km/h 4.8 mph /  7.7 km/h 96 % 0.0 in /  0 mm
Meteo18
Compliments of Weather Underground - 4 mb

Script developed by  Jim McMurry - jmcmurry@mwt.net Adapted for the template by  Wim van der Kuil - Leuven-Template.eu

You find our weather info also at:

European Weather Network

Weather Underground

Equipment we use:

Weather-station
Davis Vue

Weather-program
Meteobridge

Weather-server
Raspberry PI 2 B+

Provider
1 and 1

Davis Vue

Meteobridge

Raspberry PI 2 B+

1 and 1